Terminal Aerodrome Forecast
Issued by NWS

Home | Current Version | Previous Version | Graphics & Text | Print | Product List | Glossary On
Versions: 1 2 3 4 5 6 7 8 9 10 11 12 13 14 15 16 17
000
FTUS43 KOAX 160318 AAA
TAFCDR
TAF AMD
KCDR 160318Z 1603/1624 32012G20KT 6SM -RA VCTS OVC020CB
     FM160500 36005KT 5SM BR VCSH SCT007 OVC015
     FM160700 01008KT 4SM BR OVC008=

USA.gov is the U.S. government's official web portal to all federal, state and local government web resources and services.